Time;durP1;ratioP1;P1;durP2;ratioP2;P2;SDS_P1;SDS_P2;PMS_P1;PMS_P2;Temp;Humidity;BMP_temperature;BMP_pressure;BME280_temperature;BME280_humidity;BME280_pressure;Samples;Min_cycle;Max_cycle;Signal;HPM_P1;HPM_P2
2021/12/25 00:00:15;;;;;;;2.13;0.80;;;-2.20;99.90;;;;;;5027546;28;20193;-77
2021/12/25 00:02:42;;;;;;;4.17;1.43;;;-2.10;99.90;;;;;;5045981;28;20598;-77
2021/12/25 00:05:09;;;;;;;2.13;0.90;;;-2.00;99.90;;;;;;5035570;28;20184;-77
2021/12/25 00:07:34;;;;;;;2.53;1.03;;;-2.10;99.90;;;;;;5021135;28;20649;-77
2021/12/25 00:10:00;;;;;;;2.03;0.87;;;-2.10;99.90;;;;;;5034941;28;20244;-76
2021/12/25 00:12:27;;;;;;;1.67;0.83;;;-2.10;99.90;;;;;;5039641;28;20178;-77
2021/12/25 00:14:54;;;;;;;3.83;1.43;;;-2.10;99.90;;;;;;5038586;28;20540;-77
2021/12/25 00:17:20;;;;;;;2.20;1.17;;;-2.20;99.90;;;;;;5047529;28;20177;-77
2021/12/25 00:19:46;;;;;;;4.77;1.60;;;-2.10;99.90;;;;;;5038763;28;20199;-77
2021/12/25 00:22:11;;;;;;;1.87;1.17;;;-2.10;99.90;;;;;;5048196;28;20544;-77
2021/12/25 00:25:02;;;;;;;4.27;1.30;;;-2.20;99.90;;;;;;5039392;28;20192;-77
2021/12/25 00:30:16;;;;;;;1.57;1.20;;;-2.20;99.90;;;;;;5041160;28;20506;-78
2021/12/25 00:35:07;;;;;;;3.30;1.37;;;-2.10;99.90;;;;;;5039204;28;20200;-78
2021/12/25 00:37:34;;;;;;;2.93;1.10;;;-2.30;99.90;;;;;;5031139;28;20177;-78
2021/12/25 00:40:00;;;;;;;4.83;1.10;;;-2.30;99.90;;;;;;5046651;28;20209;-78
2021/12/25 00:42:26;;;;;;;4.13;1.47;;;-2.30;99.90;;;;;;5030910;28;20173;-78
2021/12/25 00:44:52;;;;;;;2.13;1.23;;;-2.30;99.90;;;;;;5027735;28;20505;-78
2021/12/25 00:47:18;;;;;;;2.73;1.60;;;-2.40;99.90;;;;;;5029082;28;20639;-78
2021/12/25 00:49:44;;;;;;;4.20;1.70;;;-2.20;99.90;;;;;;5028175;28;20203;-78
2021/12/25 00:52:10;;;;;;;6.53;1.97;;;-2.40;99.90;;;;;;5032313;28;20182;-78
2021/12/25 00:54:35;;;;;;;2.77;1.60;;;-2.50;99.90;;;;;;5033069;28;20190;-78
2021/12/25 00:57:02;;;;;;;3.53;1.67;;;-2.60;99.90;;;;;;5028903;28;20701;-78
2021/12/25 00:59:29;;;;;;;2.40;1.63;;;-2.80;99.90;;;;;;5025010;28;20260;-78
2021/12/25 01:01:55;;;;;;;4.57;1.83;;;-2.90;99.90;;;;;;5030063;28;20176;-77
2021/12/25 01:04:21;;;;;;;3.40;1.50;;;-2.70;99.90;;;;;;5031366;28;20184;-77
2021/12/25 01:06:48;;;;;;;4.93;1.93;;;-2.60;99.90;;;;;;5042449;28;20179;-77
2021/12/25 01:09:14;;;;;;;3.13;1.50;;;-2.50;99.90;;;;;;5025992;28;20205;-77
2021/12/25 01:11:42;;;;;;;3.13;1.63;;;-2.40;99.90;;;;;;5026150;28;20178;-78
2021/12/25 01:14:22;;;;;;;2.33;1.80;;;-2.30;99.90;;;;;;5021381;28;20178;-77
2021/12/25 01:20:29;;;;;;;2.37;1.53;;;-2.60;99.90;;;;;;5037460;28;20371;-77
2021/12/25 01:26:08;;;;;;;3.80;1.93;;;-3.00;99.90;;;;;;5025137;28;20458;-78
2021/12/25 01:31:19;;;;;;;3.27;1.77;;;-2.70;99.90;;;;;;5046011;28;20669;-77
2021/12/25 01:39:48;;;;;;;2.73;1.90;;;-3.00;99.90;;;;;;5060326;28;20227;-78
2021/12/25 01:48:47;;;;;;;5.50;2.00;;;-2.90;99.90;;;;;;5042980;28;20172;-77
2021/12/25 01:51:13;;;;;;;2.93;1.60;;;-3.00;99.90;;;;;;5031218;28;20207;-77
2021/12/25 01:53:38;;;;;;;4.07;1.67;;;-3.10;99.90;;;;;;5022773;28;20628;-77
2021/12/25 01:56:04;;;;;;;4.00;1.77;;;-3.00;99.90;;;;;;5025803;28;20173;-77
2021/12/25 01:58:33;;;;;;;5.30;1.60;;;-2.90;99.90;;;;;;5027279;28;20177;-77
2021/12/25 02:00:59;;;;;;;5.27;1.90;;;-2.70;99.90;;;;;;5021767;28;20572;-78
2021/12/25 02:03:30;;;;;;;6.07;1.87;;;-2.80;99.90;;;;;;5024326;28;20175;-77
2021/12/25 02:05:56;;;;;;;2.97;1.70;;;-2.70;99.90;;;;;;5035164;28;20181;-77
2021/12/25 02:08:29;;;;;;;3.70;1.90;;;-2.60;99.90;;;;;;5043336;28;20177;-77
2021/12/25 02:10:55;;;;;;;3.93;1.80;;;-2.70;99.90;;;;;;5030375;28;20208;-77
2021/12/25 02:13:22;;;;;;;3.40;1.53;;;-2.70;99.90;;;;;;5021440;28;20174;-77
2021/12/25 02:15:51;;;;;;;4.00;1.60;;;-2.70;99.90;;;;;;5033177;28;20653;-77
2021/12/25 02:18:55;;;;;;;4.07;1.80;;;-2.60;99.90;;;;;;5031685;28;20178;-76
2021/12/25 02:21:40;;;;;;;3.47;1.33;;;-2.60;99.90;;;;;;5038922;28;20181;-76
2021/12/25 02:24:09;;;;;;;4.63;1.87;;;-2.60;99.90;;;;;;5022289;28;20181;-77
2021/12/25 02:26:37;;;;;;;4.03;2.00;;;-2.70;99.90;;;;;;5028506;28;20179;-77
2021/12/25 02:29:03;;;;;;;5.63;1.97;;;-2.70;99.90;;;;;;5025358;28;20209;-77
2021/12/25 02:31:29;;;;;;;1.93;1.70;;;-2.60;99.90;;;;;;5031251;28;20173;-77
2021/12/25 02:33:55;;;;;;;1.87;1.40;;;-2.60;99.90;;;;;;5021191;28;20238;-77
2021/12/25 02:36:21;;;;;;;3.70;1.40;;;-2.60;99.90;;;;;;5040409;28;20652;-78
2021/12/25 02:38:48;;;;;;;1.97;1.40;;;-2.60;99.90;;;;;;5041024;28;20204;-77
2021/12/25 02:41:15;;;;;;;2.10;1.50;;;-2.60;99.90;;;;;;5061028;28;20165;-78
2021/12/25 02:43:44;;;;;;;6.60;1.80;;;-2.70;99.90;;;;;;5060216;28;20176;-78
2021/12/25 02:46:10;;;;;;;2.63;1.40;;;-2.80;99.90;;;;;;5049221;28;20184;-78
2021/12/25 02:48:37;;;;;;;2.90;1.60;;;-2.80;99.90;;;;;;5046938;28;20257;-78
2021/12/25 02:51:04;;;;;;;4.30;1.50;;;-2.80;99.90;;;;;;5044965;28;20231;-78
2021/12/25 02:53:31;;;;;;;6.03;1.60;;;-2.70;99.90;;;;;;5043770;28;20165;-78
2021/12/25 02:55:57;;;;;;;2.67;1.50;;;-2.60;99.90;;;;;;5049567;28;20182;-78
2021/12/25 02:58:26;;;;;;;2.67;1.47;;;-2.70;99.90;;;;;;5052248;28;20182;-78
2021/12/25 03:01:05;;;;;;;2.67;1.63;;;-2.80;99.90;;;;;;5072641;28;20168;-79
2021/12/25 03:03:30;;;;;;;1.70;1.33;;;-2.60;99.90;;;;;;5070215;28;20157;-78
2021/12/25 03:05:56;;;;;;;3.30;1.70;;;-2.50;99.90;;;;;;5059827;28;20191;-77
2021/12/25 03:08:22;;;;;;;2.90;1.30;;;-2.70;99.90;;;;;;5056750;28;20201;-77
2021/12/25 03:10:58;;;;;;;2.07;1.30;;;-2.70;99.90;;;;;;5070070;28;20308;-78
2021/12/25 03:15:57;;;;;;;4.87;1.60;;;-2.70;99.90;;;;;;5049826;28;20177;-77
2021/12/25 03:18:31;;;;;;;1.87;1.20;;;-2.60;99.90;;;;;;5028524;28;20169;-77
2021/12/25 03:20:58;;;;;;;3.47;1.47;;;-2.50;99.90;;;;;;5029046;28;20171;-77
2021/12/25 03:23:27;;;;;;;2.90;1.33;;;-2.60;99.90;;;;;;5026423;28;20204;-78
2021/12/25 03:25:55;;;;;;;3.20;1.70;;;-2.60;99.90;;;;;;5053125;28;20169;-77
2021/12/25 03:28:24;;;;;;;3.10;1.60;;;-2.70;99.90;;;;;;5046650;28;20166;-77
2021/12/25 03:30:50;;;;;;;4.10;2.10;;;-2.70;99.90;;;;;;5034790;28;20189;-77
2021/12/25 03:33:19;;;;;;;3.93;2.03;;;-2.70;99.90;;;;;;5028742;28;20180;-77
2021/12/25 03:35:45;;;;;;;4.87;1.67;;;-2.70;99.90;;;;;;5034586;28;20628;-77
2021/12/25 03:38:21;;;;;;;6.30;1.90;;;-2.80;99.90;;;;;;5024817;28;20192;-77
2021/12/25 03:40:51;;;;;;;2.17;1.40;;;-2.80;99.90;;;;;;5027744;28;20676;-78
2021/12/25 03:43:19;;;;;;;2.77;1.73;;;-2.80;99.90;;;;;;5034428;28;20181;-77
2021/12/25 03:45:45;;;;;;;2.80;1.50;;;-2.80;99.90;;;;;;5036881;28;20177;-78
2021/12/25 03:59:00;;;;;;;5.53;1.80;;;-2.80;99.90;;;;;;5048942;28;20238;-77
2021/12/25 04:06:45;;;;;;;5.00;2.20;;;-2.90;99.90;;;;;;5044554;28;20592;-77
2021/12/25 04:09:30;;;;;;;4.53;2.00;;;-2.80;99.90;;;;;;5034080;28;20299;-78
2021/12/25 04:12:00;;;;;;;6.90;2.40;;;-2.80;99.90;;;;;;5027595;28;20532;-77
2021/12/25 04:14:26;;;;;;;3.83;1.90;;;-2.70;99.90;;;;;;5034633;28;20211;-78
2021/12/25 04:16:52;;;;;;;2.30;1.70;;;-2.70;99.90;;;;;;5026988;28;20260;-78
2021/12/25 04:19:19;;;;;;;3.43;1.90;;;-2.90;99.90;;;;;;5023284;28;20283;-78
2021/12/25 04:22:02;;;;;;;7.13;2.03;;;-2.80;99.90;;;;;;5047272;28;20180;-78
2021/12/25 04:24:34;;;;;;;3.37;1.70;;;-2.90;99.90;;;;;;5046526;28;20686;-78
2021/12/25 04:27:00;;;;;;;3.90;1.97;;;-2.90;99.90;;;;;;5042132;28;20699;-78
2021/12/25 04:32:07;;;;;;;5.47;2.03;;;-2.80;99.90;;;;;;5046577;28;20275;-78
2021/12/25 05:05:02;;;;;;;4.17;1.83;;;-2.80;99.90;;;;;;5057331;28;20231;-77
2021/12/25 05:07:33;;;;;;;6.10;2.07;;;-2.80;99.90;;;;;;5026826;28;20192;-78
2021/12/25 05:09:59;;;;;;;5.10;1.60;;;-2.80;99.90;;;;;;5052336;28;20208;-77
2021/12/25 05:12:25;;;;;;;3.60;1.97;;;-2.90;99.90;;;;;;5028837;28;20641;-78
2021/12/25 05:14:51;;;;;;;4.27;1.90;;;-2.90;99.90;;;;;;5033862;28;20177;-76
2021/12/25 05:17:16;;;;;;;5.50;1.63;;;-2.90;99.90;;;;;;5047002;28;20169;-77
2021/12/25 05:19:42;;;;;;;3.07;1.77;;;-3.00;99.90;;;;;;5029323;28;20630;-77
2021/12/25 05:22:09;;;;;;;4.47;1.73;;;-3.00;99.90;;;;;;5033931;28;20232;-76
2021/12/25 05:24:35;;;;;;;3.87;1.63;;;-3.10;99.90;;;;;;5028499;28;20193;-77
2021/12/25 05:27:01;;;;;;;3.30;1.50;;;-3.10;99.90;;;;;;5043536;28;20209;-77
2021/12/25 05:29:30;;;;;;;2.47;1.40;;;-3.10;99.90;;;;;;5035737;28;20196;-78
2021/12/25 05:32:06;;;;;;;4.23;1.50;;;-3.10;99.90;;;;;;5043161;28;20177;-78
2021/12/25 05:35:10;;;;;;;2.90;1.70;;;-3.10;99.90;;;;;;5027861;28;20672;-78
2021/12/25 05:38:15;;;;;;;3.70;1.80;;;-3.00;99.90;;;;;;5042867;28;20176;-77
2021/12/25 05:40:53;;;;;;;2.00;1.40;;;-3.20;99.90;;;;;;5028826;28;20180;-78
2021/12/25 05:43:19;;;;;;;2.30;1.20;;;-3.20;99.90;;;;;;5025354;28;20184;-78
2021/12/25 05:45:45;;;;;;;2.90;1.30;;;-3.40;99.90;;;;;;5027404;28;20180;-78
2021/12/25 05:48:21;;;;;;;4.57;1.37;;;-3.50;99.90;;;;;;5050716;28;20640;-78
2021/12/25 05:50:58;;;;;;;3.53;1.50;;;-3.50;99.90;;;;;;5043936;28;20208;-78
2021/12/25 05:53:28;;;;;;;1.83;1.30;;;-3.30;99.90;;;;;;5009173;28;20206;-78
2021/12/25 05:56:26;;;;;;;4.17;1.40;;;-3.20;99.90;;;;;;5051123;28;20169;-78
2021/12/25 05:59:14;;;;;;;3.20;1.60;;;-3.10;99.90;;;;;;5049970;28;20560;-77
2021/12/25 06:02:03;;;;;;;9.00;1.70;;;-3.20;99.90;;;;;;5051539;28;20284;-77
2021/12/25 06:04:33;;;;;;;4.10;1.60;;;-3.30;99.90;;;;;;5042711;28;20181;-77
2021/12/25 06:06:58;;;;;;;4.10;1.70;;;-3.20;99.90;;;;;;5031353;28;20204;-77
2021/12/25 06:09:25;;;;;;;4.50;1.70;;;-3.20;99.90;;;;;;5030863;28;20230;-77
2021/12/25 06:11:50;;;;;;;5.53;1.93;;;-3.20;99.90;;;;;;5037505;28;20177;-77
2021/12/25 06:14:21;;;;;;;4.83;1.37;;;-3.20;99.90;;;;;;5053234;28;20176;-78
2021/12/25 06:17:04;;;;;;;3.73;1.20;;;-3.20;99.90;;;;;;5036549;28;20216;-77
2021/12/25 06:19:46;;;;;;;3.10;1.50;;;-3.20;99.90;;;;;;5033897;28;20204;-78
2021/12/25 06:22:27;;;;;;;2.63;1.50;;;-3.20;99.90;;;;;;5040506;28;20174;-77
2021/12/25 06:25:08;;;;;;;2.20;1.50;;;-3.20;99.90;;;;;;5047468;28;20655;-78
2021/12/25 06:28:09;;;;;;;3.93;1.50;;;-3.30;99.90;;;;;;4981396;28;20263;-78
2021/12/25 06:31:04;;;;;;;3.17;1.50;;;-3.20;99.90;;;;;;5047919;28;20260;-78
2021/12/25 06:33:54;;;;;;;3.57;1.70;;;-3.40;99.90;;;;;;5031483;28;20218;-78
2021/12/25 06:36:39;;;;;;;2.57;1.50;;;-3.60;99.90;;;;;;5027676;28;20181;-78
2021/12/25 06:39:31;;;;;;;2.87;1.67;;;-3.70;99.90;;;;;;5037358;28;20243;-78
2021/12/25 06:42:06;;;;;;;2.97;1.73;;;-3.50;99.90;;;;;;5049975;28;20195;-78
2021/12/25 06:44:32;;;;;;;2.97;1.60;;;-3.40;99.90;;;;;;5055399;28;20266;-77
2021/12/25 06:46:58;;;;;;;3.63;1.57;;;-3.40;99.90;;;;;;5039098;28;20216;-78
2021/12/25 06:49:24;;;;;;;4.00;1.43;;;-3.40;99.90;;;;;;5029809;28;20208;-79
2021/12/25 06:52:08;;;;;;;2.43;1.70;;;-3.40;99.90;;;;;;5052719;28;20180;-76
2021/12/25 06:54:52;;;;;;;5.03;1.60;;;-3.50;99.90;;;;;;5033785;28;20169;-76
2021/12/25 06:57:28;;;;;;;4.27;1.70;;;-3.80;99.90;;;;;;5034089;28;20169;-77
2021/12/25 06:59:57;;;;;;;2.23;1.60;;;-3.90;99.90;;;;;;5048773;28;20220;-77
2021/12/25 07:02:23;;;;;;;9.07;1.90;;;-3.90;99.90;;;;;;5033290;28;20376;-77
2021/12/25 07:05:12;;;;;;;3.83;1.60;;;-4.00;99.90;;;;;;5050800;28;20170;-77
2021/12/25 07:08:00;;;;;;;2.73;1.40;;;-3.90;99.90;;;;;;5042563;28;20177;-79
2021/12/25 07:11:01;;;;;;;6.07;1.90;;;-3.90;99.90;;;;;;5023069;28;20205;-77
2021/12/25 07:13:49;;;;;;;3.37;1.50;;;-3.90;99.90;;;;;;5039804;28;20189;-77
2021/12/25 07:16:33;;;;;;;3.03;1.43;;;-3.90;99.90;;;;;;5041887;28;20640;-77
2021/12/25 07:19:18;;;;;;;3.07;1.20;;;-4.10;99.90;;;;;;5051505;28;20203;-78
2021/12/25 07:22:06;;;;;;;2.47;1.63;;;-4.20;99.90;;;;;;5032939;28;20230;-76
2021/12/25 07:24:32;;;;;;;4.50;1.50;;;-4.30;99.90;;;;;;5051063;28;20189;-76
2021/12/25 07:27:17;;;;;;;3.00;1.23;;;-4.10;99.90;;;;;;5033636;28;20165;-77
2021/12/25 07:29:52;;;;;;;3.83;1.60;;;-3.90;99.90;;;;;;5025111;28;20203;-76
2021/12/25 07:32:17;;;;;;;4.60;1.90;;;-3.80;99.90;;;;;;5051715;28;20265;-77
2021/12/25 07:34:46;;;;;;;3.93;1.60;;;-3.70;99.90;;;;;;5028521;28;20441;-76
2021/12/25 07:37:13;;;;;;;2.63;1.67;;;-3.60;99.90;;;;;;5051992;28;20169;-76
2021/12/25 07:39:43;;;;;;;2.17;1.60;;;-3.60;99.90;;;;;;5035181;28;20190;-76
2021/12/25 07:42:09;;;;;;;3.53;1.70;;;-3.60;99.90;;;;;;5051519;28;20188;-76
2021/12/25 07:45:02;;;;;;;3.50;1.40;;;-3.80;99.90;;;;;;5040975;28;20177;-76
2021/12/25 07:47:27;;;;;;;5.10;1.67;;;-3.90;99.90;;;;;;5035791;28;20185;-76
2021/12/25 07:49:56;;;;;;;4.10;1.77;;;-3.80;99.90;;;;;;5032479;28;20192;-76
2021/12/25 07:52:22;;;;;;;3.83;1.53;;;-3.90;99.90;;;;;;5058213;28;20261;-76
2021/12/25 07:54:48;;;;;;;3.13;1.80;;;-4.10;99.90;;;;;;5028078;28;20182;-75
2021/12/25 07:57:14;;;;;;;1.93;1.40;;;-4.20;99.90;;;;;;5023930;28;20519;-76
2021/12/25 07:59:47;;;;;;;4.00;1.50;;;-4.10;99.90;;;;;;5041110;28;20198;-76
2021/12/25 08:02:13;;;;;;;4.03;1.70;;;-3.90;99.90;;;;;;5033163;28;20188;-76
2021/12/25 08:04:38;;;;;;;2.83;1.60;;;-3.90;99.90;;;;;;5030510;28;20211;-75
2021/12/25 08:07:04;;;;;;;4.07;1.43;;;-3.90;99.90;;;;;;5041989;28;20201;-75
2021/12/25 08:09:31;;;;;;;3.27;1.60;;;-3.80;99.90;;;;;;5042430;28;20219;-75
2021/12/25 08:11:58;;;;;;;2.57;1.43;;;-3.70;99.90;;;;;;5052523;28;20185;-75
2021/12/25 08:14:27;;;;;;;2.60;1.20;;;-3.70;99.90;;;;;;5045217;28;20236;-76
2021/12/25 08:16:55;;;;;;;3.63;1.63;;;-3.70;99.90;;;;;;5042353;28;20231;-75
2021/12/25 08:19:22;;;;;;;4.47;1.40;;;-3.60;99.90;;;;;;5045900;28;20192;-75
2021/12/25 08:22:07;;;;;;;6.40;1.90;;;-3.60;99.90;;;;;;5060381;28;20203;-75
2021/12/25 08:25:12;;;;;;;2.50;1.70;;;-3.50;99.90;;;;;;5020334;28;20249;-75
2021/12/25 08:27:57;;;;;;;3.27;1.57;;;-3.50;99.90;;;;;;5017286;28;20229;-75
2021/12/25 08:30:29;;;;;;;2.67;1.67;;;-3.60;99.90;;;;;;5039773;28;20221;-75
2021/12/25 08:33:13;;;;;;;4.27;1.40;;;-3.50;99.90;;;;;;5049376;28;20180;-75
2021/12/25 08:36:02;;;;;;;2.23;1.50;;;-3.30;99.90;;;;;;5032968;28;20188;-76
2021/12/25 08:38:28;;;;;;;3.53;1.30;;;-3.20;99.90;;;;;;5041456;28;20265;-75
2021/12/25 08:40:55;;;;;;;6.83;1.60;;;-3.10;99.90;;;;;;5037945;28;20636;-76
2021/12/25 08:43:24;;;;;;;2.53;1.40;;;-3.00;99.90;;;;;;5035257;28;20201;-76
2021/12/25 08:46:01;;;;;;;2.87;1.80;;;-3.20;99.90;;;;;;5045411;28;20180;-76
2021/12/25 08:48:27;;;;;;;4.10;1.80;;;-3.40;99.90;;;;;;5030023;28;20179;-76
2021/12/25 08:50:58;;;;;;;1.90;1.20;;;-3.50;99.90;;;;;;5028446;28;20198;-76
2021/12/25 08:53:27;;;;;;;5.00;1.70;;;-3.50;99.90;;;;;;5022921;28;20265;-76
2021/12/25 08:55:55;;;;;;;3.13;1.73;;;-3.60;99.90;;;;;;5046270;28;20181;-76
2021/12/25 08:58:21;;;;;;;3.03;1.70;;;-3.30;99.90;;;;;;5036983;28;20663;-75
2021/12/25 09:00:50;;;;;;;2.00;1.20;;;-3.20;99.90;;;;;;5041824;28;20205;-76
2021/12/25 09:03:26;;;;;;;2.37;1.57;;;-3.00;99.90;;;;;;5035255;28;20517;-75
2021/12/25 09:06:02;;;;;;;2.70;1.73;;;-2.90;99.90;;;;;;5057361;28;20180;-76
2021/12/25 09:08:28;;;;;;;1.30;1.03;;;-2.70;99.90;;;;;;5046853;28;20177;-77
2021/12/25 09:10:54;;;;;;;3.83;1.60;;;-2.60;99.90;;;;;;5040585;28;20217;-74
2021/12/25 09:13:20;;;;;;;4.73;1.60;;;-2.60;99.90;;;;;;5058465;28;20173;-75
2021/12/25 09:15:46;;;;;;;3.63;1.37;;;-2.60;99.90;;;;;;5079288;28;20214;-76
2021/12/25 09:18:12;;;;;;;3.60;1.50;;;-2.70;99.90;;;;;;5050974;28;20169;-77
2021/12/25 09:20:42;;;;;;;1.63;1.20;;;-2.60;99.90;;;;;;5046215;28;20269;-75
2021/12/25 09:23:08;;;;;;;2.90;1.30;;;-2.40;99.90;;;;;;5064106;28;20244;-75
2021/12/25 09:25:34;;;;;;;3.57;1.60;;;-2.40;99.90;;;;;;5057748;28;20196;-76
2021/12/25 09:28:00;;;;;;;2.40;1.40;;;-2.30;99.90;;;;;;5044348;28;20162;-76
2021/12/25 09:30:26;;;;;;;6.53;1.80;;;-2.40;99.90;;;;;;5051751;28;20200;-76
2021/12/25 09:32:52;;;;;;;2.97;1.40;;;-2.70;99.90;;;;;;5056496;28;20252;-77
2021/12/25 09:35:18;;;;;;;2.90;1.50;;;-2.80;99.90;;;;;;5045648;28;20182;-76
2021/12/25 09:37:44;;;;;;;2.70;1.57;;;-2.80;99.90;;;;;;5041471;28;20182;-75
2021/12/25 09:40:11;;;;;;;2.10;1.53;;;-2.50;99.90;;;;;;5045439;28;20281;-77
2021/12/25 09:42:40;;;;;;;3.03;1.87;;;-2.20;99.90;;;;;;5059685;28;20182;-76
2021/12/25 09:45:10;;;;;;;7.50;1.53;;;-2.10;99.90;;;;;;5037843;28;20173;-76
2021/12/25 09:47:37;;;;;;;2.87;1.30;;;-2.10;99.90;;;;;;5031137;28;20189;-76
2021/12/25 09:50:05;;;;;;;1.37;1.10;;;-2.20;99.90;;;;;;5038918;28;20299;-76
2021/12/25 09:52:31;;;;;;;2.17;1.47;;;-2.30;99.90;;;;;;5026238;28;20179;-76
2021/12/25 09:54:57;;;;;;;2.97;1.67;;;-2.20;99.90;;;;;;5032382;28;20176;-76
2021/12/25 09:57:23;;;;;;;5.40;1.57;;;-2.00;99.90;;;;;;5031746;28;20536;-76
2021/12/25 09:59:49;;;;;;;4.00;1.67;;;-2.10;99.90;;;;;;5030134;28;20543;-76
2021/12/25 10:02:15;;;;;;;2.97;1.57;;;-2.10;99.90;;;;;;5021003;28;20213;-76
2021/12/25 10:04:56;;;;;;;3.50;1.60;;;-2.10;99.90;;;;;;5006754;28;20251;-76
2021/12/25 10:07:30;;;;;;;3.53;1.70;;;-2.00;99.90;;;;;;5034105;28;20182;-75
2021/12/25 10:10:15;;;;;;;3.40;1.80;;;-2.10;99.90;;;;;;5033426;28;20228;-76
2021/12/25 10:12:45;;;;;;;2.83;1.70;;;-2.10;99.90;;;;;;5034573;28;20169;-75
2021/12/25 10:15:13;;;;;;;2.30;1.70;;;-2.10;99.90;;;;;;5029943;28;20191;-75
2021/12/25 10:17:53;;;;;;;8.40;2.17;;;-2.10;99.90;;;;;;5044059;28;20269;-75
2021/12/25 10:20:22;;;;;;;3.63;2.03;;;-2.10;99.90;;;;;;5021798;28;20202;-75
2021/12/25 10:23:15;;;;;;;5.40;1.97;;;-2.00;99.90;;;;;;5002629;28;20181;-76
2021/12/25 10:25:55;;;;;;;4.93;2.20;;;-2.00;99.90;;;;;;5028151;28;20207;-76
2021/12/25 10:28:36;;;;;;;6.13;2.50;;;-1.80;99.90;;;;;;5048999;28;20181;-77
2021/12/25 10:31:07;;;;;;;5.40;2.67;;;-1.70;99.90;;;;;;5036716;28;20234;-76
2021/12/25 10:33:51;;;;;;;7.47;2.77;;;-1.80;99.90;;;;;;5019200;28;20264;-76
2021/12/25 10:36:33;;;;;;;4.80;2.47;;;-1.60;99.90;;;;;;5024759;28;20593;-76
2021/12/25 10:39:09;;;;;;;8.47;3.50;;;-1.60;99.90;;;;;;5023078;28;20201;-76
2021/12/25 10:41:39;;;;;;;5.87;2.97;;;-1.80;99.90;;;;;;5027653;28;20338;-76
2021/12/25 10:44:24;;;;;;;6.33;2.80;;;-1.80;99.90;;;;;;5022654;28;20188;-76
2021/12/25 10:46:57;;;;;;;4.53;3.00;;;-1.70;99.90;;;;;;5031957;28;20186;-76
2021/12/25 10:49:30;;;;;;;7.53;3.20;;;-1.80;99.90;;;;;;5042018;28;20213;-76
2021/12/25 10:52:19;;;;;;;5.57;2.90;;;-1.70;99.90;;;;;;5023454;28;20165;-76
2021/12/25 10:54:52;;;;;;;21.73;3.20;;;-1.90;99.90;;;;;;5019454;28;20341;-76
2021/12/25 10:57:43;;;;;;;7.47;3.27;;;-2.00;99.90;;;;;;5002447;28;20257;-76
2021/12/25 11:00:21;;;;;;;7.80;3.43;;;-1.90;99.90;;;;;;5023184;28;20198;-76
2021/12/25 11:02:58;;;;;;;6.53;3.00;;;-2.10;99.90;;;;;;5023226;28;20177;-76
2021/12/25 11:05:28;;;;;;;5.03;3.00;;;-2.10;99.90;;;;;;5014648;28;20194;-76
2021/12/25 11:08:14;;;;;;;5.83;2.93;;;-1.90;99.90;;;;;;5025095;28;20653;-76
2021/12/25 11:10:44;;;;;;;7.53;2.90;;;-1.80;99.90;;;;;;5030226;28;20671;-76
2021/12/25 11:13:22;;;;;;;6.03;2.80;;;-1.80;99.90;;;;;;5027725;28;20180;-76
2021/12/25 11:15:52;;;;;;;8.63;3.57;;;-1.80;99.90;;;;;;5048385;28;20201;-76
2021/12/25 11:18:19;;;;;;;5.00;2.93;;;-1.70;99.90;;;;;;5025422;28;20187;-76
2021/12/25 11:20:46;;;;;;;5.97;3.20;;;-1.70;99.90;;;;;;5021524;28;20207;-76
2021/12/25 11:23:15;;;;;;;3.80;2.30;;;-1.60;99.90;;;;;;5036035;28;20179;-76
2021/12/25 11:25:43;;;;;;;4.00;2.20;;;-1.70;99.90;;;;;;5028001;28;20694;-76
2021/12/25 11:28:11;;;;;;;5.83;2.63;;;-1.70;99.90;;;;;;5041707;28;20659;-76
2021/12/25 11:30:52;;;;;;;5.23;2.10;;;-1.50;99.90;;;;;;5017799;28;20210;-76
2021/12/25 11:33:18;;;;;;;7.40;2.40;;;-1.60;99.90;;;;;;5032263;28;20632;-76
2021/12/25 11:35:44;;;;;;;3.70;2.20;;;-1.50;99.90;;;;;;5027192;28;20341;-76
2021/12/25 11:38:10;;;;;;;3.97;1.97;;;-1.30;99.90;;;;;;5054297;28;20632;-76
2021/12/25 11:40:42;;;;;;;3.97;2.50;;;-1.10;99.90;;;;;;5027251;28;20250;-77
2021/12/25 11:43:08;;;;;;;5.03;2.67;;;-1.00;99.90;;;;;;5028277;28;20203;-77
2021/12/25 11:45:40;;;;;;;4.30;2.13;;;-1.20;99.90;;;;;;5036255;28;20224;-77
2021/12/25 11:48:15;;;;;;;6.27;2.40;;;-1.30;99.90;;;;;;5038692;28;20547;-77
2021/12/25 11:50:45;;;;;;;6.30;2.40;;;-1.40;99.90;;;;;;5027370;28;20212;-77
2021/12/25 11:53:28;;;;;;;5.63;2.57;;;-1.50;99.90;;;;;;5043117;28;20184;-77
2021/12/25 11:56:20;;;;;;;3.63;2.40;;;-1.40;99.90;;;;;;5038908;28;20180;-77
2021/12/25 11:59:00;;;;;;;5.70;2.10;;;-1.30;99.90;;;;;;5049628;28;20181;-77
2021/12/25 12:01:29;;;;;;;5.07;2.20;;;-1.20;99.90;;;;;;5047657;28;20175;-76
2021/12/25 12:04:25;;;;;;;3.07;1.73;;;-1.00;99.90;;;;;;5051111;28;20182;-77
2021/12/25 12:06:56;;;;;;;4.47;1.50;;;-1.00;99.90;;;;;;5017261;28;20194;-77
2021/12/25 12:09:45;;;;;;;2.67;1.60;;;-1.00;99.90;;;;;;5051394;28;20207;-77
2021/12/25 12:12:46;;;;;;;3.07;2.13;;;-1.10;99.90;;;;;;5055485;28;20660;-76
2021/12/25 12:15:46;;;;;;;6.60;1.90;;;-1.20;99.90;;;;;;5045371;28;20181;-76
2021/12/25 12:18:38;;;;;;;2.97;1.53;;;-1.10;99.90;;;;;;5045243;28;20256;-76
2021/12/25 12:21:33;;;;;;;5.87;1.50;;;-1.10;99.90;;;;;;5029460;28;20668;-77
2021/12/25 12:24:28;;;;;;;5.97;1.60;;;-1.10;99.90;;;;;;5014532;28;20305;-76
2021/12/25 12:26:55;;;;;;;4.17;1.40;;;-1.10;99.90;;;;;;5022126;28;20192;-76
2021/12/25 12:29:38;;;;;;;3.10;1.50;;;-1.00;99.90;;;;;;5031651;28;20221;-77
2021/12/25 12:32:32;;;;;;;2.63;1.13;;;-1.00;99.90;;;;;;5029612;28;20179;-76
2021/12/25 12:34:58;;;;;;;3.53;1.43;;;-1.10;99.90;;;;;;5037022;28;20180;-76
2021/12/25 12:37:26;;;;;;;2.83;1.60;;;-1.10;99.90;;;;;;5054609;28;20255;-76
2021/12/25 12:40:04;;;;;;;5.93;1.83;;;-1.10;99.90;;;;;;5042720;28;20628;-76
2021/12/25 12:42:46;;;;;;;3.63;1.87;;;-1.10;99.90;;;;;;5047040;28;20184;-76
2021/12/25 12:45:22;;;;;;;4.00;1.80;;;-1.00;99.90;;;;;;5044872;28;20577;-76
2021/12/25 12:48:26;;;;;;;4.10;1.73;;;-1.10;99.90;;;;;;5004279;28;20187;-76
2021/12/25 12:50:55;;;;;;;4.03;2.10;;;-1.00;99.90;;;;;;5008813;28;20209;-76
2021/12/25 12:53:38;;;;;;;3.53;2.10;;;-0.90;99.90;;;;;;5034125;28;20219;-76
2021/12/25 12:56:05;;;;;;;4.63;1.87;;;-0.70;99.90;;;;;;5028212;28;20509;-76
2021/12/25 12:58:31;;;;;;;2.83;2.10;;;-0.80;99.90;;;;;;5042519;28;20623;-77
2021/12/25 13:01:10;;;;;;;6.03;2.47;;;-0.60;99.90;;;;;;5030780;28;20168;-76
2021/12/25 13:03:36;;;;;;;6.00;2.23;;;-0.40;99.90;;;;;;5033434;28;20184;-76
2021/12/25 13:06:10;;;;;;;6.07;2.60;;;-0.50;99.90;;;;;;5032046;28;20207;-76
2021/12/25 13:08:38;;;;;;;3.40;1.90;;;-0.50;99.90;;;;;;5037824;28;20184;-77
2021/12/25 13:11:31;;;;;;;3.33;1.90;;;-0.40;99.90;;;;;;5034343;28;20203;-77
2021/12/25 13:14:00;;;;;;;8.60;2.50;;;-0.40;99.90;;;;;;5037086;28;20240;-77
2021/12/25 13:16:38;;;;;;;6.80;2.50;;;-0.50;99.90;;;;;;5027746;28;20203;-76
2021/12/25 13:19:05;;;;;;;6.23;2.40;;;-0.40;99.90;;;;;;5037040;28;20265;-76
2021/12/25 13:21:34;;;;;;;5.47;2.60;;;-0.30;99.90;;;;;;5025563;28;20178;-76
2021/12/25 13:24:11;;;;;;;3.37;2.60;;;-0.40;99.90;;;;;;5021474;28;20268;-76
2021/12/25 13:26:42;;;;;;;5.30;2.50;;;-0.30;99.90;;;;;;5025167;28;20189;-78
2021/12/25 13:29:11;;;;;;;5.07;2.97;;;-0.50;99.90;;;;;;5045240;28;20264;-76
2021/12/25 13:31:39;;;;;;;5.13;2.60;;;-0.60;99.90;;;;;;5018998;28;20185;-76
2021/12/25 13:34:15;;;;;;;7.03;2.50;;;-0.70;99.90;;;;;;5027719;28;20192;-76
2021/12/25 13:36:46;;;;;;;4.20;2.70;;;-0.70;99.90;;;;;;5032303;28;20178;-76
2021/12/25 13:39:16;;;;;;;4.07;2.50;;;-0.70;99.90;;;;;;5026121;28;20188;-76
2021/12/25 13:41:49;;;;;;;4.53;2.73;;;-0.70;99.90;;;;;;5026249;28;20189;-77
2021/12/25 13:44:27;;;;;;;4.37;2.20;;;-0.80;99.90;;;;;;5022630;28;20697;-78
2021/12/25 13:47:03;;;;;;;4.87;2.37;;;-0.80;99.90;;;;;;5024267;28;20192;-78
2021/12/25 13:49:54;;;;;;;4.67;2.50;;;-0.80;99.90;;;;;;5018839;28;20307;-77
2021/12/25 13:52:20;;;;;;;6.07;2.70;;;-0.90;99.90;;;;;;5025398;28;20180;-77
2021/12/25 13:54:59;;;;;;;4.73;2.50;;;-0.90;99.90;;;;;;5029168;28;20177;-77
2021/12/25 13:57:27;;;;;;;4.47;2.00;;;-0.70;99.90;;;;;;5042678;28;20267;-77
2021/12/25 13:59:56;;;;;;;6.23;2.23;;;-0.50;99.90;;;;;;5037532;28;20537;-77
2021/12/25 14:02:23;;;;;;;4.87;2.17;;;-0.40;99.90;;;;;;5028931;28;20177;-76
2021/12/25 14:04:52;;;;;;;5.10;2.20;;;-0.60;99.90;;;;;;5033411;28;20203;-77
2021/12/25 14:07:26;;;;;;;6.33;2.47;;;-0.80;99.90;;;;;;5016498;28;20259;-77
2021/12/25 14:10:21;;;;;;;8.53;2.67;;;-0.90;99.90;;;;;;5027138;28;20258;-77
2021/12/25 14:12:54;;;;;;;5.10;2.53;;;-1.00;99.90;;;;;;5019604;28;20180;-77
2021/12/25 14:15:23;;;;;;;4.30;1.93;;;-1.00;99.90;;;;;;5032411;28;20621;-77
2021/12/25 14:17:50;;;;;;;2.97;2.10;;;-0.90;99.90;;;;;;5026575;28;20629;-77
2021/12/25 14:20:27;;;;;;;5.00;2.40;;;-0.90;99.90;;;;;;5032095;28;20663;-77
2021/12/25 14:23:18;;;;;;;5.17;2.50;;;-0.70;99.90;;;;;;5008441;28;20186;-77
2021/12/25 14:25:55;;;;;;;5.23;2.00;;;-0.50;99.90;;;;;;5038082;28;20243;-77
2021/12/25 14:28:37;;;;;;;4.83;2.20;;;-0.30;99.90;;;;;;5023649;28;20174;-77
2021/12/25 14:31:20;;;;;;;3.97;2.13;;;-0.50;99.90;;;;;;5011600;28;20208;-76
2021/12/25 14:34:02;;;;;;;2.87;2.00;;;-0.50;99.90;;;;;;5028648;28;20259;-76
2021/12/25 14:36:37;;;;;;;6.03;2.03;;;-0.60;99.90;;;;;;5027642;28;20614;-77